sensor_id;sensor_type;location;lat;lon;timestamp;P1;durP1;ratioP1;P2;durP2;ratioP2
5245;SDS011;54412;51.206;6.888;2022-08-07T00:01:35;1.50;;;1.20;;
5245;SDS011;54412;51.206;6.888;2022-08-07T00:04:01;2.43;;;1.17;;
5245;SDS011;54412;51.206;6.888;2022-08-07T00:06:28;6.00;;;1.40;;
5245;SDS011;54412;51.206;6.888;2022-08-07T00:08:54;3.33;;;1.30;;
5245;SDS011;54412;51.206;6.888;2022-08-07T00:11:20;3.00;;;1.20;;
5245;SDS011;54412;51.206;6.888;2022-08-07T00:13:45;3.40;;;1.60;;
5245;SDS011;54412;51.206;6.888;2022-08-07T00:16:11;1.53;;;1.43;;
5245;SDS011;54412;51.206;6.888;2022-08-07T00:18:38;1.63;;;1.10;;
5245;SDS011;54412;51.206;6.888;2022-08-07T00:21:05;1.43;;;1.33;;
5245;SDS011;54412;51.206;6.888;2022-08-07T00:23:34;2.23;;;1.43;;
5245;SDS011;54412;51.206;6.888;2022-08-07T00:26:03;1.63;;;1.47;;
5245;SDS011;54412;51.206;6.888;2022-08-07T00:28:32;3.27;;;1.70;;
5245;SDS011;54412;51.206;6.888;2022-08-07T00:30:58;1.70;;;1.60;;
5245;SDS011;54412;51.206;6.888;2022-08-07T00:33:26;2.30;;;1.13;;
5245;SDS011;54412;51.206;6.888;2022-08-07T00:35:55;2.70;;;1.73;;
5245;SDS011;54412;51.206;6.888;2022-08-07T00:38:22;3.00;;;1.40;;
5245;SDS011;54412;51.206;6.888;2022-08-07T00:40:48;1.50;;;1.20;;
5245;SDS011;54412;51.206;6.888;2022-08-07T00:43:14;2.70;;;1.40;;
5245;SDS011;54412;51.206;6.888;2022-08-07T00:45:41;2.50;;;1.30;;
5245;SDS011;54412;51.206;6.888;2022-08-07T00:48:08;5.30;;;1.50;;
5245;SDS011;54412;51.206;6.888;2022-08-07T00:50:35;3.37;;;1.53;;
5245;SDS011;54412;51.206;6.888;2022-08-07T00:53:02;3.70;;;1.67;;
5245;SDS011;54412;51.206;6.888;2022-08-07T00:55:28;1.90;;;1.30;;
5245;SDS011;54412;51.206;6.888;2022-08-07T00:57:54;1.73;;;1.63;;
5245;SDS011;54412;51.206;6.888;2022-08-07T01:00:20;2.27;;;1.47;;
5245;SDS011;54412;51.206;6.888;2022-08-07T01:02:47;1.50;;;1.40;;
5245;SDS011;54412;51.206;6.888;2022-08-07T01:05:13;1.90;;;1.50;;
5245;SDS011;54412;51.206;6.888;2022-08-07T01:07:40;2.40;;;1.50;;
5245;SDS011;54412;51.206;6.888;2022-08-07T01:10:06;1.80;;;1.70;;
5245;SDS011;54412;51.206;6.888;2022-08-07T01:12:33;3.67;;;1.70;;
5245;SDS011;54412;51.206;6.888;2022-08-07T01:15:01;3.40;;;1.57;;
5245;SDS011;54412;51.206;6.888;2022-08-07T01:17:28;3.27;;;2.00;;
5245;SDS011;54412;51.206;6.888;2022-08-07T01:19:58;3.53;;;1.20;;
5245;SDS011;54412;51.206;6.888;2022-08-07T01:22:36;1.60;;;1.50;;
5245;SDS011;54412;51.206;6.888;2022-08-07T01:25:03;1.50;;;1.40;;
5245;SDS011;54412;51.206;6.888;2022-08-07T01:27:32;1.67;;;1.33;;
5245;SDS011;54412;51.206;6.888;2022-08-07T01:29:58;1.80;;;1.70;;
5245;SDS011;54412;51.206;6.888;2022-08-07T01:32:24;3.63;;;1.53;;
5245;SDS011;54412;51.206;6.888;2022-08-07T01:34:50;1.40;;;1.40;;
5245;SDS011;54412;51.206;6.888;2022-08-07T01:37:17;1.67;;;1.57;;
5245;SDS011;54412;51.206;6.888;2022-08-07T01:39:44;2.80;;;1.50;;
5245;SDS011;54412;51.206;6.888;2022-08-07T01:42:11;2.47;;;1.60;;
5245;SDS011;54412;51.206;6.888;2022-08-07T01:44:39;1.23;;;1.17;;
5245;SDS011;54412;51.206;6.888;2022-08-07T01:47:06;8.03;;;1.63;;
5245;SDS011;54412;51.206;6.888;2022-08-07T01:49:33;2.30;;;1.37;;
5245;SDS011;54412;51.206;6.888;2022-08-07T01:52:01;1.40;;;1.30;;
5245;SDS011;54412;51.206;6.888;2022-08-07T01:54:30;1.23;;;1.13;;
5245;SDS011;54412;51.206;6.888;2022-08-07T01:57:02;2.30;;;1.10;;
5245;SDS011;54412;51.206;6.888;2022-08-07T02:02:13;1.43;;;1.27;;
5245;SDS011;54412;51.206;6.888;2022-08-07T02:04:48;1.50;;;1.27;;
5245;SDS011;54412;51.206;6.888;2022-08-07T02:07:22;2.73;;;1.40;;
5245;SDS011;54412;51.206;6.888;2022-08-07T02:09:55;2.83;;;1.43;;
5245;SDS011;54412;51.206;6.888;2022-08-07T02:12:23;1.43;;;1.00;;
5245;SDS011;54412;51.206;6.888;2022-08-07T02:14:55;3.63;;;1.40;;
5245;SDS011;54412;51.206;6.888;2022-08-07T02:17:25;1.20;;;1.10;;
5245;SDS011;54412;51.206;6.888;2022-08-07T02:19:52;4.40;;;1.20;;
5245;SDS011;54412;51.206;6.888;2022-08-07T02:22:22;2.40;;;1.53;;
5245;SDS011;54412;51.206;6.888;2022-08-07T02:24:50;1.20;;;1.10;;
5245;SDS011;54412;51.206;6.888;2022-08-07T02:27:20;1.10;;;1.10;;
5245;SDS011;54412;51.206;6.888;2022-08-07T02:29:49;2.80;;;1.40;;
5245;SDS011;54412;51.206;6.888;2022-08-07T02:32:17;1.10;;;1.03;;
5245;SDS011;54412;51.206;6.888;2022-08-07T02:34:44;1.10;;;1.00;;
5245;SDS011;54412;51.206;6.888;2022-08-07T02:37:13;1.07;;;1.00;;
5245;SDS011;54412;51.206;6.888;2022-08-07T02:39:42;1.73;;;1.00;;
5245;SDS011;54412;51.206;6.888;2022-08-07T02:42:12;0.93;;;0.93;;
5245;SDS011;54412;51.206;6.888;2022-08-07T02:44:40;1.37;;;0.90;;
5245;SDS011;54412;51.206;6.888;2022-08-07T02:47:09;2.60;;;1.13;;
5245;SDS011;54412;51.206;6.888;2022-08-07T02:49:37;1.13;;;1.10;;
5245;SDS011;54412;51.206;6.888;2022-08-07T02:52:04;2.67;;;1.37;;
5245;SDS011;54412;51.206;6.888;2022-08-07T02:54:38;0.93;;;0.93;;
5245;SDS011;54412;51.206;6.888;2022-08-07T02:57:07;1.90;;;1.37;;
5245;SDS011;54412;51.206;6.888;2022-08-07T02:59:39;1.27;;;1.20;;
5245;SDS011;54412;51.206;6.888;2022-08-07T03:02:11;1.67;;;1.27;;
5245;SDS011;54412;51.206;6.888;2022-08-07T03:04:39;0.90;;;0.90;;
5245;SDS011;54412;51.206;6.888;2022-08-07T03:07:10;1.87;;;1.13;;
5245;SDS011;54412;51.206;6.888;2022-08-07T03:09:37;9.63;;;1.30;;
5245;SDS011;54412;51.206;6.888;2022-08-07T03:12:06;0.87;;;0.87;;
5245;SDS011;54412;51.206;6.888;2022-08-07T03:14:34;3.93;;;1.23;;
5245;SDS011;54412;51.206;6.888;2022-08-07T03:17:01;4.93;;;1.40;;
5245;SDS011;54412;51.206;6.888;2022-08-07T03:19:28;1.60;;;1.20;;
5245;SDS011;54412;51.206;6.888;2022-08-07T03:21:55;1.13;;;1.13;;
5245;SDS011;54412;51.206;6.888;2022-08-07T03:24:21;2.77;;;1.00;;
5245;SDS011;54412;51.206;6.888;2022-08-07T03:26:47;2.40;;;1.30;;
5245;SDS011;54412;51.206;6.888;2022-08-07T03:29:16;1.40;;;1.30;;
5245;SDS011;54412;51.206;6.888;2022-08-07T03:31:44;1.50;;;1.40;;
5245;SDS011;54412;51.206;6.888;2022-08-07T03:34:12;2.23;;;1.33;;
5245;SDS011;54412;51.206;6.888;2022-08-07T03:36:41;1.00;;;1.00;;
5245;SDS011;54412;51.206;6.888;2022-08-07T03:39:10;2.60;;;0.80;;
5245;SDS011;54412;51.206;6.888;2022-08-07T03:41:38;4.00;;;0.90;;
5245;SDS011;54412;51.206;6.888;2022-08-07T03:44:05;3.20;;;0.90;;
5245;SDS011;54412;51.206;6.888;2022-08-07T03:46:31;1.37;;;1.20;;
5245;SDS011;54412;51.206;6.888;2022-08-07T03:48:59;1.60;;;1.10;;
5245;SDS011;54412;51.206;6.888;2022-08-07T03:51:25;2.57;;;1.20;;
5245;SDS011;54412;51.206;6.888;2022-08-07T03:53:53;1.23;;;1.23;;
5245;SDS011;54412;51.206;6.888;2022-08-07T03:56:19;4.80;;;2.40;;
5245;SDS011;54412;51.206;6.888;2022-08-07T03:58:48;5.93;;;1.67;;
5245;SDS011;54412;51.206;6.888;2022-08-07T04:01:15;2.10;;;1.27;;
5245;SDS011;54412;51.206;6.888;2022-08-07T04:03:42;1.83;;;1.63;;
5245;SDS011;54412;51.206;6.888;2022-08-07T04:06:09;2.83;;;1.23;;
5245;SDS011;54412;51.206;6.888;2022-08-07T04:08:38;3.60;;;1.30;;
5245;SDS011;54412;51.206;6.888;2022-08-07T04:11:05;6.23;;;1.00;;
5245;SDS011;54412;51.206;6.888;2022-08-07T04:13:35;1.90;;;1.20;;
5245;SDS011;54412;51.206;6.888;2022-08-07T04:16:02;3.30;;;1.37;;
5245;SDS011;54412;51.206;6.888;2022-08-07T04:18:28;1.40;;;1.30;;
5245;SDS011;54412;51.206;6.888;2022-08-07T04:20:54;3.63;;;1.20;;
5245;SDS011;54412;51.206;6.888;2022-08-07T04:23:20;6.10;;;1.40;;
5245;SDS011;54412;51.206;6.888;2022-08-07T04:25:49;2.43;;;1.60;;
5245;SDS011;54412;51.206;6.888;2022-08-07T04:28:16;1.20;;;1.20;;
5245;SDS011;54412;51.206;6.888;2022-08-07T04:30:46;1.57;;;1.47;;
5245;SDS011;54412;51.206;6.888;2022-08-07T04:33:13;7.13;;;1.50;;
5245;SDS011;54412;51.206;6.888;2022-08-07T04:35:42;1.83;;;1.10;;
5245;SDS011;54412;51.206;6.888;2022-08-07T04:38:12;1.60;;;1.50;;
5245;SDS011;54412;51.206;6.888;2022-08-07T04:40:39;1.80;;;1.33;;
5245;SDS011;54412;51.206;6.888;2022-08-07T04:43:07;4.03;;;1.77;;
5245;SDS011;54412;51.206;6.888;2022-08-07T04:45:36;3.40;;;1.30;;
5245;SDS011;54412;51.206;6.888;2022-08-07T04:51:08;8.03;;;1.50;;
5245;SDS011;54412;51.206;6.888;2022-08-07T05:00:01;2.50;;;1.57;;
5245;SDS011;54412;51.206;6.888;2022-08-07T05:02:41;4.90;;;1.93;;
5245;SDS011;54412;51.206;6.888;2022-08-07T05:10:56;6.10;;;2.00;;
5245;SDS011;54412;51.206;6.888;2022-08-07T05:13:38;1.17;;;1.13;;
5245;SDS011;54412;51.206;6.888;2022-08-07T05:16:15;1.97;;;1.67;;
5245;SDS011;54412;51.206;6.888;2022-08-07T05:18:50;3.20;;;1.60;;
5245;SDS011;54412;51.206;6.888;2022-08-07T05:21:24;7.70;;;1.67;;
5245;SDS011;54412;51.206;6.888;2022-08-07T05:23:57;2.20;;;1.47;;
5245;SDS011;54412;51.206;6.888;2022-08-07T05:26:29;4.03;;;1.43;;
5245;SDS011;54412;51.206;6.888;2022-08-07T05:28:58;1.67;;;1.20;;
5245;SDS011;54412;51.206;6.888;2022-08-07T05:31:30;1.63;;;1.53;;
5245;SDS011;54412;51.206;6.888;2022-08-07T05:33:59;1.50;;;1.40;;
5245;SDS011;54412;51.206;6.888;2022-08-07T05:36:26;1.80;;;1.17;;
5245;SDS011;54412;51.206;6.888;2022-08-07T05:38:54;1.57;;;1.47;;
5245;SDS011;54412;51.206;6.888;2022-08-07T05:41:21;2.00;;;1.80;;
5245;SDS011;54412;51.206;6.888;2022-08-07T05:43:48;1.73;;;1.60;;
5245;SDS011;54412;51.206;6.888;2022-08-07T05:46:21;1.63;;;1.40;;
5245;SDS011;54412;51.206;6.888;2022-08-07T05:48:48;3.23;;;1.33;;
5245;SDS011;54412;51.206;6.888;2022-08-07T05:51:17;4.73;;;1.57;;
5245;SDS011;54412;51.206;6.888;2022-08-07T05:53:44;4.10;;;1.97;;
5245;SDS011;54412;51.206;6.888;2022-08-07T05:56:11;5.30;;;1.43;;
5245;SDS011;54412;51.206;6.888;2022-08-07T05:58:40;2.07;;;1.40;;
5245;SDS011;54412;51.206;6.888;2022-08-07T06:01:10;1.33;;;1.10;;
5245;SDS011;54412;51.206;6.888;2022-08-07T06:03:38;2.10;;;1.50;;
5245;SDS011;54412;51.206;6.888;2022-08-07T06:06:09;6.53;;;1.50;;
5245;SDS011;54412;51.206;6.888;2022-08-07T06:08:38;4.83;;;1.43;;
5245;SDS011;54412;51.206;6.888;2022-08-07T06:11:05;2.93;;;1.37;;
5245;SDS011;54412;51.206;6.888;2022-08-07T06:13:33;1.40;;;1.30;;
5245;SDS011;54412;51.206;6.888;2022-08-07T06:16:01;4.27;;;1.10;;
5245;SDS011;54412;51.206;6.888;2022-08-07T06:18:30;6.70;;;1.80;;
5245;SDS011;54412;51.206;6.888;2022-08-07T06:21:00;1.67;;;1.50;;
5245;SDS011;54412;51.206;6.888;2022-08-07T06:23:28;1.87;;;1.53;;
5245;SDS011;54412;51.206;6.888;2022-08-07T06:25:55;3.07;;;1.30;;
5245;SDS011;54412;51.206;6.888;2022-08-07T06:28:23;3.10;;;1.47;;
5245;SDS011;54412;51.206;6.888;2022-08-07T06:30:50;1.10;;;1.00;;
5245;SDS011;54412;51.206;6.888;2022-08-07T06:33:16;1.23;;;1.13;;
5245;SDS011;54412;51.206;6.888;2022-08-07T06:35:43;2.10;;;1.20;;
5245;SDS011;54412;51.206;6.888;2022-08-07T06:38:09;2.63;;;1.33;;
5245;SDS011;54412;51.206;6.888;2022-08-07T06:40:45;2.40;;;1.23;;
5245;SDS011;54412;51.206;6.888;2022-08-07T06:43:15;2.20;;;1.13;;
5245;SDS011;54412;51.206;6.888;2022-08-07T06:45:47;6.63;;;1.20;;
5245;SDS011;54412;51.206;6.888;2022-08-07T06:48:13;2.63;;;0.83;;
5245;SDS011;54412;51.206;6.888;2022-08-07T06:50:39;1.07;;;0.93;;
5245;SDS011;54412;51.206;6.888;2022-08-07T06:53:07;1.40;;;1.30;;
5245;SDS011;54412;51.206;6.888;2022-08-07T06:55:34;3.33;;;1.00;;
5245;SDS011;54412;51.206;6.888;2022-08-07T06:58:03;1.43;;;1.33;;
5245;SDS011;54412;51.206;6.888;2022-08-07T07:00:34;1.30;;;1.20;;
5245;SDS011;54412;51.206;6.888;2022-08-07T07:03:04;1.70;;;0.97;;
5245;SDS011;54412;51.206;6.888;2022-08-07T07:05:31;2.50;;;1.03;;
5245;SDS011;54412;51.206;6.888;2022-08-07T07:07:57;3.20;;;1.40;;
5245;SDS011;54412;51.206;6.888;2022-08-07T07:10:29;3.37;;;1.10;;
5245;SDS011;54412;51.206;6.888;2022-08-07T07:13:03;1.07;;;0.97;;
5245;SDS011;54412;51.206;6.888;2022-08-07T07:15:47;2.87;;;0.93;;
5245;SDS011;54412;51.206;6.888;2022-08-07T07:18:22;2.37;;;0.97;;
5245;SDS011;54412;51.206;6.888;2022-08-07T07:20:56;3.60;;;1.03;;
5245;SDS011;54412;51.206;6.888;2022-08-07T07:23:28;8.00;;;1.00;;
5245;SDS011;54412;51.206;6.888;2022-08-07T07:25:58;0.80;;;0.73;;
5245;SDS011;54412;51.206;6.888;2022-08-07T07:28:30;2.87;;;0.73;;
5245;SDS011;54412;51.206;6.888;2022-08-07T07:31:03;3.63;;;1.20;;
5245;SDS011;54412;51.206;6.888;2022-08-07T07:33:37;1.30;;;1.00;;
5245;SDS011;54412;51.206;6.888;2022-08-07T07:36:06;1.90;;;0.80;;
5245;SDS011;54412;51.206;6.888;2022-08-07T07:38:34;2.00;;;1.07;;
5245;SDS011;54412;51.206;6.888;2022-08-07T07:41:01;1.57;;;1.10;;
5245;SDS011;54412;51.206;6.888;2022-08-07T07:43:33;0.60;;;0.60;;
5245;SDS011;54412;51.206;6.888;2022-08-07T07:46:06;1.03;;;0.80;;
5245;SDS011;54412;51.206;6.888;2022-08-07T07:48:34;2.60;;;0.90;;
5245;SDS011;54412;51.206;6.888;2022-08-07T07:51:04;0.70;;;0.70;;
5245;SDS011;54412;51.206;6.888;2022-08-07T07:53:31;1.90;;;0.80;;
5245;SDS011;54412;51.206;6.888;2022-08-07T07:56:02;4.33;;;0.67;;
5245;SDS011;54412;51.206;6.888;2022-08-07T07:58:33;0.80;;;0.80;;
5245;SDS011;54412;51.206;6.888;2022-08-07T08:01:02;1.03;;;0.60;;
5245;SDS011;54412;51.206;6.888;2022-08-07T08:03:30;1.10;;;0.70;;
5245;SDS011;54412;51.206;6.888;2022-08-07T08:06:01;0.77;;;0.70;;
5245;SDS011;54412;51.206;6.888;2022-08-07T08:08:28;1.37;;;0.60;;
5245;SDS011;54412;51.206;6.888;2022-08-07T08:10:56;0.60;;;0.60;;
5245;SDS011;54412;51.206;6.888;2022-08-07T08:13:24;4.83;;;0.60;;
5245;SDS011;54412;51.206;6.888;2022-08-07T08:15:52;1.17;;;0.80;;
5245;SDS011;54412;51.206;6.888;2022-08-07T08:18:23;0.70;;;0.50;;
5245;SDS011;54412;51.206;6.888;2022-08-07T08:20:51;3.17;;;0.60;;
5245;SDS011;54412;51.206;6.888;2022-08-07T08:23:18;3.17;;;0.70;;
5245;SDS011;54412;51.206;6.888;2022-08-07T08:26:03;1.60;;;0.67;;
5245;SDS011;54412;51.206;6.888;2022-08-07T08:28:50;1.80;;;0.70;;
5245;SDS011;54412;51.206;6.888;2022-08-07T08:31:21;0.40;;;0.40;;
5245;SDS011;54412;51.206;6.888;2022-08-07T08:33:53;2.00;;;0.60;;
5245;SDS011;54412;51.206;6.888;2022-08-07T08:36:22;0.87;;;0.60;;
5245;SDS011;54412;51.206;6.888;2022-08-07T08:38:53;0.40;;;0.40;;
5245;SDS011;54412;51.206;6.888;2022-08-07T08:41:36;3.27;;;0.80;;
5245;SDS011;54412;51.206;6.888;2022-08-07T08:44:34;1.43;;;0.40;;
5245;SDS011;54412;51.206;6.888;2022-08-07T08:50:03;0.77;;;0.50;;
5245;SDS011;54412;51.206;6.888;2022-08-07T08:55:53;1.57;;;0.60;;
5245;SDS011;54412;51.206;6.888;2022-08-07T09:12:36;1.23;;;0.90;;
5245;SDS011;54412;51.206;6.888;2022-08-07T09:21:33;0.40;;;0.40;;
5245;SDS011;54412;51.206;6.888;2022-08-07T09:27:32;0.63;;;0.50;;
5245;SDS011;54412;51.206;6.888;2022-08-07T09:30:09;3.73;;;0.50;;
5245;SDS011;54412;51.206;6.888;2022-08-07T09:36:01;0.50;;;0.50;;
5245;SDS011;54412;51.206;6.888;2022-08-07T09:47:18;0.60;;;0.50;;
5245;SDS011;54412;51.206;6.888;2022-08-07T09:50:11;2.47;;;0.50;;
5245;SDS011;54412;51.206;6.888;2022-08-07T09:53:15;1.53;;;0.70;;
5245;SDS011;54412;51.206;6.888;2022-08-07T09:58:55;0.50;;;0.50;;
5245;SDS011;54412;51.206;6.888;2022-08-07T10:04:20;0.70;;;0.33;;
5245;SDS011;54412;51.206;6.888;2022-08-07T10:10:39;1.83;;;0.80;;
5245;SDS011;54412;51.206;6.888;2022-08-07T10:16:21;0.70;;;0.50;;
5245;SDS011;54412;51.206;6.888;2022-08-07T10:22:16;1.40;;;0.60;;
5245;SDS011;54412;51.206;6.888;2022-08-07T10:25:15;2.93;;;0.57;;
5245;SDS011;54412;51.206;6.888;2022-08-07T10:28:23;3.03;;;0.43;;
5245;SDS011;54412;51.206;6.888;2022-08-07T10:34:04;0.83;;;0.50;;
5245;SDS011;54412;51.206;6.888;2022-08-07T10:46:08;0.80;;;0.50;;
5245;SDS011;54412;51.206;6.888;2022-08-07T10:49:01;1.37;;;0.60;;
5245;SDS011;54412;51.206;6.888;2022-08-07T10:54:42;1.23;;;0.70;;
5245;SDS011;54412;51.206;6.888;2022-08-07T11:00:14;1.57;;;0.53;;
5245;SDS011;54412;51.206;6.888;2022-08-07T11:02:45;1.10;;;0.53;;
5245;SDS011;54412;51.206;6.888;2022-08-07T11:05:43;2.77;;;0.60;;
5245;SDS011;54412;51.206;6.888;2022-08-07T11:11:31;0.87;;;0.77;;
5245;SDS011;54412;51.206;6.888;2022-08-07T11:14:17;1.50;;;0.50;;
5245;SDS011;54412;51.206;6.888;2022-08-07T11:16:55;0.80;;;0.57;;
5245;SDS011;54412;51.206;6.888;2022-08-07T11:22:35;0.40;;;0.40;;
5245;SDS011;54412;51.206;6.888;2022-08-07T11:26:24;1.10;;;0.50;;
5245;SDS011;54412;51.206;6.888;2022-08-07T11:28:39;2.50;;;0.67;;
5245;SDS011;54412;51.206;6.888;2022-08-07T11:31:19;6.53;;;0.60;;
5245;SDS011;54412;51.206;6.888;2022-08-07T11:37:24;3.33;;;0.60;;
5245;SDS011;54412;51.206;6.888;2022-08-07T11:40:54;0.53;;;0.53;;
5245;SDS011;54412;51.206;6.888;2022-08-07T11:47:10;0.90;;;0.60;;
5245;SDS011;54412;51.206;6.888;2022-08-07T11:58:18;1.60;;;0.63;;
5245;SDS011;54412;51.206;6.888;2022-08-07T12:06:42;3.40;;;0.43;;
5245;SDS011;54412;51.206;6.888;2022-08-07T12:09:21;0.70;;;0.60;;
5245;SDS011;54412;51.206;6.888;2022-08-07T12:14:53;0.80;;;0.50;;
5245;SDS011;54412;51.206;6.888;2022-08-07T12:17:29;1.63;;;0.80;;
5245;SDS011;54412;51.206;6.888;2022-08-07T12:20:11;0.50;;;0.50;;
5245;SDS011;54412;51.206;6.888;2022-08-07T12:25:59;0.70;;;0.53;;
5245;SDS011;54412;51.206;6.888;2022-08-07T12:34:32;1.63;;;1.00;;
5245;SDS011;54412;51.206;6.888;2022-08-07T12:37:02;0.73;;;0.47;;
5245;SDS011;54412;51.206;6.888;2022-08-07T12:39:32;2.30;;;0.70;;
5245;SDS011;54412;51.206;6.888;2022-08-07T12:42:03;0.93;;;0.80;;
5245;SDS011;54412;51.206;6.888;2022-08-07T12:44:33;2.30;;;1.20;;
5245;SDS011;54412;51.206;6.888;2022-08-07T12:50:22;1.13;;;0.93;;
5245;SDS011;54412;51.206;6.888;2022-08-07T12:53:14;0.83;;;0.60;;
5245;SDS011;54412;51.206;6.888;2022-08-07T12:55:49;0.73;;;0.70;;
5245;SDS011;54412;51.206;6.888;2022-08-07T12:58:59;0.70;;;0.67;;
5245;SDS011;54412;51.206;6.888;2022-08-07T13:01:41;3.00;;;1.37;;
5245;SDS011;54412;51.206;6.888;2022-08-07T13:19:15;1.50;;;1.40;;
5245;SDS011;54412;51.206;6.888;2022-08-07T13:24:25;1.90;;;1.03;;
5245;SDS011;54412;51.206;6.888;2022-08-07T13:27:12;1.03;;;0.70;;
5245;SDS011;54412;51.206;6.888;2022-08-07T13:30:00;0.60;;;0.60;;
5245;SDS011;54412;51.206;6.888;2022-08-07T13:32:40;0.60;;;0.50;;
5245;SDS011;54412;51.206;6.888;2022-08-07T13:35:36;8.30;;;1.10;;
5245;SDS011;54412;51.206;6.888;2022-08-07T13:41:10;0.70;;;0.70;;
5245;SDS011;54412;51.206;6.888;2022-08-07T13:43:57;0.60;;;0.60;;
5245;SDS011;54412;51.206;6.888;2022-08-07T13:46:27;0.60;;;0.60;;
5245;SDS011;54412;51.206;6.888;2022-08-07T13:48:59;4.83;;;0.70;;
5245;SDS011;54412;51.206;6.888;2022-08-07T13:51:29;0.70;;;0.70;;
5245;SDS011;54412;51.206;6.888;2022-08-07T13:54:02;0.63;;;0.63;;
5245;SDS011;54412;51.206;6.888;2022-08-07T13:56:36;0.63;;;0.63;;
5245;SDS011;54412;51.206;6.888;2022-08-07T13:59:12;3.30;;;0.70;;
5245;SDS011;54412;51.206;6.888;2022-08-07T14:01:55;0.90;;;0.57;;
5245;SDS011;54412;51.206;6.888;2022-08-07T14:04:37;0.67;;;0.67;;
5245;SDS011;54412;51.206;6.888;2022-08-07T14:07:15;0.40;;;0.40;;
5245;SDS011;54412;51.206;6.888;2022-08-07T14:09:45;2.53;;;0.60;;
5245;SDS011;54412;51.206;6.888;2022-08-07T14:12:25;0.47;;;0.47;;
5245;SDS011;54412;51.206;6.888;2022-08-07T14:15:16;0.87;;;0.57;;
5245;SDS011;54412;51.206;6.888;2022-08-07T14:18:02;0.50;;;0.50;;
5245;SDS011;54412;51.206;6.888;2022-08-07T14:20:37;0.83;;;0.60;;
5245;SDS011;54412;51.206;6.888;2022-08-07T14:23:19;6.00;;;0.70;;
5245;SDS011;54412;51.206;6.888;2022-08-07T14:25:53;2.87;;;0.80;;
5245;SDS011;54412;51.206;6.888;2022-08-07T14:28:26;1.80;;;0.50;;
5245;SDS011;54412;51.206;6.888;2022-08-07T14:30:54;0.83;;;0.80;;
5245;SDS011;54412;51.206;6.888;2022-08-07T14:33:22;0.50;;;0.47;;
5245;SDS011;54412;51.206;6.888;2022-08-07T14:35:53;1.23;;;0.60;;
5245;SDS011;54412;51.206;6.888;2022-08-07T14:38:22;0.80;;;0.60;;
5245;SDS011;54412;51.206;6.888;2022-08-07T14:40:58;0.80;;;0.80;;
5245;SDS011;54412;51.206;6.888;2022-08-07T14:43:29;2.00;;;0.50;;
5245;SDS011;54412;51.206;6.888;2022-08-07T14:45:58;0.67;;;0.67;;
5245;SDS011;54412;51.206;6.888;2022-08-07T14:48:28;0.60;;;0.47;;
5245;SDS011;54412;51.206;6.888;2022-08-07T14:50:58;2.63;;;0.50;;
5245;SDS011;54412;51.206;6.888;2022-08-07T14:53:31;0.80;;;0.47;;
5245;SDS011;54412;51.206;6.888;2022-08-07T14:56:03;0.70;;;0.70;;
5245;SDS011;54412;51.206;6.888;2022-08-07T14:58:33;1.03;;;0.50;;
5245;SDS011;54412;51.206;6.888;2022-08-07T15:01:03;6.07;;;0.60;;
5245;SDS011;54412;51.206;6.888;2022-08-07T15:03:30;2.50;;;0.70;;
5245;SDS011;54412;51.206;6.888;2022-08-07T15:05:58;1.23;;;0.60;;
5245;SDS011;54412;51.206;6.888;2022-08-07T15:08:29;0.60;;;0.50;;
5245;SDS011;54412;51.206;6.888;2022-08-07T15:11:03;2.00;;;0.60;;
5245;SDS011;54412;51.206;6.888;2022-08-07T15:13:35;0.60;;;0.60;;
5245;SDS011;54412;51.206;6.888;2022-08-07T15:16:36;0.60;;;0.40;;
5245;SDS011;54412;51.206;6.888;2022-08-07T15:19:12;0.60;;;0.60;;
5245;SDS011;54412;51.206;6.888;2022-08-07T15:21:48;1.97;;;0.73;;
5245;SDS011;54412;51.206;6.888;2022-08-07T15:24:27;0.63;;;0.63;;
5245;SDS011;54412;51.206;6.888;2022-08-07T15:27:06;0.83;;;0.63;;
5245;SDS011;54412;51.206;6.888;2022-08-07T15:29:39;0.60;;;0.60;;
5245;SDS011;54412;51.206;6.888;2022-08-07T15:32:08;2.30;;;0.60;;
5245;SDS011;54412;51.206;6.888;2022-08-07T15:34:35;2.30;;;0.60;;
5245;SDS011;54412;51.206;6.888;2022-08-07T15:37:09;0.53;;;0.53;;
5245;SDS011;54412;51.206;6.888;2022-08-07T15:39:37;3.03;;;0.70;;
5245;SDS011;54412;51.206;6.888;2022-08-07T15:42:05;2.00;;;0.77;;
5245;SDS011;54412;51.206;6.888;2022-08-07T15:44:52;0.50;;;0.50;;
5245;SDS011;54412;51.206;6.888;2022-08-07T15:47:20;0.53;;;0.53;;
5245;SDS011;54412;51.206;6.888;2022-08-07T15:49:49;0.83;;;0.50;;
5245;SDS011;54412;51.206;6.888;2022-08-07T15:52:18;0.67;;;0.67;;
5245;SDS011;54412;51.206;6.888;2022-08-07T15:54:50;2.70;;;0.80;;
5245;SDS011;54412;51.206;6.888;2022-08-07T15:57:24;0.53;;;0.53;;
5245;SDS011;54412;51.206;6.888;2022-08-07T15:59:56;0.73;;;0.60;;
5245;SDS011;54412;51.206;6.888;2022-08-07T16:02:25;0.90;;;0.40;;
5245;SDS011;54412;51.206;6.888;2022-08-07T16:04:59;1.63;;;0.70;;
5245;SDS011;54412;51.206;6.888;2022-08-07T16:07:38;4.10;;;0.67;;
5245;SDS011;54412;51.206;6.888;2022-08-07T16:16:04;0.87;;;0.60;;
5245;SDS011;54412;51.206;6.888;2022-08-07T16:19:02;0.53;;;0.53;;
5245;SDS011;54412;51.206;6.888;2022-08-07T16:25:37;1.37;;;0.50;;
5245;SDS011;54412;51.206;6.888;2022-08-07T16:27:58;0.53;;;0.53;;
5245;SDS011;54412;51.206;6.888;2022-08-07T16:31:08;3.90;;;0.60;;
5245;SDS011;54412;51.206;6.888;2022-08-07T16:33:49;0.73;;;0.70;;
5245;SDS011;54412;51.206;6.888;2022-08-07T16:39:14;0.97;;;0.60;;
5245;SDS011;54412;51.206;6.888;2022-08-07T16:45:02;2.30;;;0.77;;
5245;SDS011;54412;51.206;6.888;2022-08-07T17:00:03;0.67;;;0.67;;
5245;SDS011;54412;51.206;6.888;2022-08-07T17:11:33;0.77;;;0.60;;
5245;SDS011;54412;51.206;6.888;2022-08-07T17:14:49;0.90;;;0.60;;
5245;SDS011;54412;51.206;6.888;2022-08-07T17:22:55;4.10;;;3.23;;
5245;SDS011;54412;51.206;6.888;2022-08-07T17:25:36;2.03;;;1.20;;
5245;SDS011;54412;51.206;6.888;2022-08-07T17:28:23;1.07;;;1.07;;
5245;SDS011;54412;51.206;6.888;2022-08-07T17:31:21;1.40;;;0.90;;
5245;SDS011;54412;51.206;6.888;2022-08-07T17:35:03;0.83;;;0.83;;
5245;SDS011;54412;51.206;6.888;2022-08-07T17:37:06;1.53;;;1.10;;
5245;SDS011;54412;51.206;6.888;2022-08-07T17:39:57;0.60;;;0.60;;
5245;SDS011;54412;51.206;6.888;2022-08-07T17:45:11;1.10;;;1.10;;
5245;SDS011;54412;51.206;6.888;2022-08-07T17:47:56;1.10;;;1.00;;
5245;SDS011;54412;51.206;6.888;2022-08-07T17:51:34;1.37;;;0.70;;
5245;SDS011;54412;51.206;6.888;2022-08-07T17:54:29;1.10;;;1.10;;
5245;SDS011;54412;51.206;6.888;2022-08-07T17:57:03;2.73;;;1.63;;
5245;SDS011;54412;51.206;6.888;2022-08-07T17:59:44;1.37;;;1.10;;
5245;SDS011;54412;51.206;6.888;2022-08-07T18:02:26;0.83;;;0.80;;
5245;SDS011;54412;51.206;6.888;2022-08-07T18:05:04;1.60;;;1.10;;
5245;SDS011;54412;51.206;6.888;2022-08-07T18:13:47;1.37;;;0.97;;
5245;SDS011;54412;51.206;6.888;2022-08-07T18:19:10;2.10;;;1.00;;
5245;SDS011;54412;51.206;6.888;2022-08-07T18:21:53;1.93;;;0.80;;
5245;SDS011;54412;51.206;6.888;2022-08-07T18:24:45;1.53;;;0.90;;
5245;SDS011;54412;51.206;6.888;2022-08-07T18:27:35;1.03;;;1.00;;
5245;SDS011;54412;51.206;6.888;2022-08-07T18:30:50;4.50;;;1.10;;
5245;SDS011;54412;51.206;6.888;2022-08-07T18:36:14;1.10;;;1.00;;
5245;SDS011;54412;51.206;6.888;2022-08-07T18:39:20;1.13;;;0.80;;
5245;SDS011;54412;51.206;6.888;2022-08-07T18:42:10;0.80;;;0.80;;
5245;SDS011;54412;51.206;6.888;2022-08-07T18:45:08;2.50;;;1.30;;
5245;SDS011;54412;51.206;6.888;2022-08-07T18:47:50;1.30;;;1.30;;
5245;SDS011;54412;51.206;6.888;2022-08-07T18:57:07;1.20;;;1.17;;
5245;SDS011;54412;51.206;6.888;2022-08-07T19:00:08;1.80;;;1.00;;
5245;SDS011;54412;51.206;6.888;2022-08-07T19:02:42;1.90;;;0.97;;
5245;SDS011;54412;51.206;6.888;2022-08-07T19:07:58;2.97;;;1.03;;
5245;SDS011;54412;51.206;6.888;2022-08-07T19:10:38;4.77;;;1.10;;
5245;SDS011;54412;51.206;6.888;2022-08-07T19:16:03;0.83;;;0.80;;
5245;SDS011;54412;51.206;6.888;2022-08-07T19:21:49;1.00;;;0.90;;
5245;SDS011;54412;51.206;6.888;2022-08-07T19:24:27;3.97;;;1.27;;
5245;SDS011;54412;51.206;6.888;2022-08-07T19:27:07;0.97;;;0.97;;
5245;SDS011;54412;51.206;6.888;2022-08-07T19:29:38;1.70;;;1.10;;
5245;SDS011;54412;51.206;6.888;2022-08-07T19:32:07;5.17;;;1.30;;